Time;durP1;ratioP1;P1;durP2;ratioP2;P2;SDS_P1;SDS_P2;PMS_P1;PMS_P2;Temp;Humidity;BMP_temperature;BMP_pressure;BME280_temperature;BME280_humidity;BME280_pressure;Samples;Min_cycle;Max_cycle;Signal;HPM_P1;HPM_P2
2023/12/05 00:00:24;;;;;;;9.90;9.00;;;3.90;99.90;;;;;;10478752;28;20220;-78
2023/12/05 00:05:26;;;;;;;8.37;7.63;;;3.90;99.90;;;;;;10468514;28;20279;-78
2023/12/05 00:10:29;;;;;;;9.60;8.60;;;3.90;99.90;;;;;;10477815;28;20622;-78
2023/12/05 00:15:31;;;;;;;7.53;6.93;;;4.00;99.90;;;;;;10474251;28;20267;-78
2023/12/05 00:20:33;;;;;;;7.87;7.10;;;4.00;99.90;;;;;;10477034;28;20618;-77
2023/12/05 00:25:36;;;;;;;9.30;8.50;;;4.10;99.90;;;;;;10490356;28;20220;-78
2023/12/05 00:30:38;;;;;;;6.33;5.83;;;4.10;99.90;;;;;;10495985;28;20725;-80
2023/12/05 00:35:40;;;;;;;6.90;6.30;;;4.20;99.90;;;;;;10494235;28;20269;-77
2023/12/05 00:40:43;;;;;;;8.47;7.67;;;4.30;99.90;;;;;;10492295;28;20274;-79
2023/12/05 00:45:45;;;;;;;7.47;6.77;;;4.30;99.90;;;;;;10491465;28;20217;-78
2023/12/05 00:50:47;;;;;;;7.10;6.53;;;4.40;99.90;;;;;;10494515;28;20688;-79
2023/12/05 00:55:50;;;;;;;6.00;5.60;;;4.50;99.90;;;;;;10493722;28;20217;-78
2023/12/05 01:00:52;;;;;;;5.63;5.17;;;4.50;99.90;;;;;;10494163;28;20289;-78
2023/12/05 01:05:54;;;;;;;5.23;4.83;;;4.50;99.90;;;;;;10491679;28;20220;-79
2023/12/05 01:10:57;;;;;;;6.00;5.33;;;4.50;99.90;;;;;;10494879;28;20192;-79
2023/12/05 01:15:59;;;;;;;5.17;4.67;;;4.50;99.90;;;;;;10490041;28;20229;-77
2023/12/05 01:21:01;;;;;;;4.90;4.50;;;4.50;99.90;;;;;;10495186;28;20213;-79
2023/12/05 01:26:05;;;;;;;4.67;4.37;;;4.60;99.90;;;;;;10495563;28;20228;-79
2023/12/05 01:31:07;;;;;;;5.00;4.60;;;4.70;99.90;;;;;;10494073;28;20588;-79
2023/12/05 01:36:11;;;;;;;4.70;4.30;;;4.70;99.90;;;;;;10491787;28;20349;-78
2023/12/05 01:41:14;;;;;;;4.53;4.23;;;4.70;99.90;;;;;;10503228;28;20264;-79
2023/12/05 01:46:16;;;;;;;4.50;4.20;;;4.70;99.90;;;;;;10497716;28;20654;-78
2023/12/05 01:51:18;;;;;;;5.40;5.00;;;4.80;99.90;;;;;;10501478;28;20238;-78
2023/12/05 01:56:22;;;;;;;5.17;4.77;;;4.90;99.90;;;;;;10500344;28;20270;-78
2023/12/05 02:01:24;;;;;;;5.53;5.03;;;4.90;99.90;;;;;;10493208;28;20595;-78
2023/12/05 02:06:26;;;;;;;4.60;4.30;;;4.90;99.90;;;;;;10493686;28;20298;-78
2023/12/05 02:11:30;;;;;;;4.87;4.57;;;4.90;99.90;;;;;;10498835;28;20196;-79
2023/12/05 02:16:37;;;;;;;4.90;4.47;;;4.90;99.90;;;;;;10483926;28;20315;-78
2023/12/05 02:21:43;;;;;;;5.37;4.97;;;4.90;99.90;;;;;;10496520;28;20227;-78
2023/12/05 02:26:54;;;;;;;4.97;4.57;;;4.90;99.90;;;;;;10495791;28;20220;-77
2023/12/05 02:31:57;;;;;;;5.60;5.20;;;4.80;99.90;;;;;;10497255;28;20531;-78
2023/12/05 02:37:08;;;;;;;4.93;4.63;;;4.80;99.90;;;;;;10495398;28;20282;-78
2023/12/05 02:42:12;;;;;;;5.23;4.83;;;4.70;99.90;;;;;;10496355;28;20245;-78
2023/12/05 02:47:18;;;;;;;5.47;5.07;;;4.70;99.90;;;;;;10479276;28;20228;-77
2023/12/05 02:52:20;;;;;;;5.30;4.90;;;4.70;99.90;;;;;;10495927;28;20723;-78
2023/12/05 02:57:22;;;;;;;5.40;5.00;;;4.70;99.90;;;;;;10494998;28;20216;-78
2023/12/05 03:02:25;;;;;;;5.10;4.70;;;4.60;99.90;;;;;;10493862;28;20265;-78
2023/12/05 03:07:27;;;;;;;5.70;5.20;;;4.60;99.90;;;;;;10494589;28;20616;-78
2023/12/05 03:12:31;;;;;;;5.30;4.90;;;4.50;99.90;;;;;;10494746;28;20570;-79
2023/12/05 03:17:34;;;;;;;5.23;4.83;;;4.50;99.90;;;;;;10474736;28;20251;-78
2023/12/05 03:22:36;;;;;;;4.90;4.50;;;4.50;99.90;;;;;;10496211;28;20274;-78
2023/12/05 03:27:38;;;;;;;5.30;4.90;;;4.50;99.90;;;;;;10497792;28;20230;-77
2023/12/05 03:32:41;;;;;;;5.80;5.30;;;4.50;99.90;;;;;;10494912;28;20193;-77
2023/12/05 03:37:43;;;;;;;6.07;5.47;;;4.60;99.90;;;;;;10492888;28;20250;-78
2023/12/05 03:42:45;;;;;;;5.67;5.27;;;4.60;99.90;;;;;;10494761;28;20216;-78
2023/12/05 03:47:48;;;;;;;5.80;5.40;;;4.60;99.90;;;;;;10473559;28;20197;-77
2023/12/05 03:52:50;;;;;;;6.33;5.93;;;4.60;99.90;;;;;;10494213;28;20193;-77
2023/12/05 03:57:52;;;;;;;7.60;6.90;;;4.60;99.90;;;;;;10494340;28;20735;-80
2023/12/05 04:02:56;;;;;;;6.70;6.10;;;4.70;99.90;;;;;;10491998;28;20270;-78
2023/12/05 04:07:58;;;;;;;6.90;6.40;;;4.70;99.90;;;;;;10492461;28;20196;-76
2023/12/05 04:13:00;;;;;;;6.60;6.00;;;4.70;99.90;;;;;;10493516;28;20216;-78
2023/12/05 04:18:03;;;;;;;6.80;6.27;;;4.70;99.90;;;;;;10470219;28;20904;-78
2023/12/05 04:23:05;;;;;;;7.00;6.07;;;4.70;99.90;;;;;;10493492;28;20228;-78
2023/12/05 04:28:07;;;;;;;5.70;5.30;;;4.70;99.90;;;;;;10492658;28;20192;-78
2023/12/05 04:33:10;;;;;;;6.10;5.70;;;4.70;99.90;;;;;;10497717;28;20216;-77
2023/12/05 04:38:12;;;;;;;5.30;4.80;;;4.60;99.90;;;;;;10493638;28;20253;-78
2023/12/05 04:43:14;;;;;;;6.80;6.10;;;4.60;99.90;;;;;;10491707;28;20278;-78
2023/12/05 04:48:17;;;;;;;7.00;6.40;;;4.60;99.90;;;;;;10469222;28;20215;-78
2023/12/05 04:53:19;;;;;;;6.53;5.93;;;4.70;99.90;;;;;;10490908;28;20208;-78
2023/12/05 04:58:21;;;;;;;5.50;5.10;;;4.70;99.90;;;;;;10491487;28;20192;-78
2023/12/05 05:03:24;;;;;;;5.87;5.37;;;4.70;99.90;;;;;;10491080;28;20220;-78
2023/12/05 05:08:26;;;;;;;5.20;4.80;;;4.70;99.90;;;;;;10490875;28;20565;-78
2023/12/05 05:13:27;;;;;;;4.50;4.20;;;4.80;99.90;;;;;;10487027;28;20208;-78
2023/12/05 05:18:31;;;;;;;4.83;4.53;;;4.90;99.90;;;;;;10463062;28;20201;-78
2023/12/05 05:23:33;;;;;;;4.17;3.90;;;5.00;99.90;;;;;;10490208;28;20788;-78
2023/12/05 05:28:35;;;;;;;4.47;4.17;;;5.10;99.90;;;;;;10490770;28;20590;-78
2023/12/05 05:33:38;;;;;;;4.20;3.90;;;5.10;99.90;;;;;;10494779;28;20237;-78
2023/12/05 05:38:40;;;;;;;3.57;3.27;;;5.20;99.90;;;;;;10489138;28;20678;-78
2023/12/05 05:43:42;;;;;;;6.03;5.63;;;5.20;99.90;;;;;;10487220;28;20221;-78
2023/12/05 05:48:45;;;;;;;4.83;4.40;;;5.20;99.90;;;;;;10474405;28;20254;-78
2023/12/05 05:53:47;;;;;;;4.80;4.30;;;5.10;99.90;;;;;;10491785;28;20208;-77
2023/12/05 05:58:49;;;;;;;5.43;4.93;;;5.00;99.90;;;;;;10485694;28;20192;-78
2023/12/05 06:03:52;;;;;;;5.07;4.67;;;5.00;99.90;;;;;;10486865;28;20362;-77
2023/12/05 06:08:55;;;;;;;5.00;4.70;;;5.00;99.90;;;;;;10486527;28;20197;-77
2023/12/05 06:13:57;;;;;;;4.50;4.10;;;5.00;99.90;;;;;;10487664;28;20221;-77
2023/12/05 06:19:00;;;;;;;4.33;3.67;;;5.00;99.90;;;;;;10489397;28;20212;-78
2023/12/05 06:24:02;;;;;;;4.50;4.10;;;5.00;99.90;;;;;;10488481;28;20224;-77
2023/12/05 06:29:05;;;;;;;5.23;4.83;;;5.00;99.90;;;;;;10494433;28;20200;-77
2023/12/05 06:34:08;;;;;;;5.37;4.80;;;5.00;99.90;;;;;;10496101;28;20205;-77
2023/12/05 06:39:10;;;;;;;4.40;4.10;;;4.90;99.90;;;;;;10496026;28;20200;-77
2023/12/05 06:44:12;;;;;;;4.13;3.73;;;4.90;99.90;;;;;;10487607;28;20239;-77
2023/12/05 06:49:15;;;;;;;4.03;3.50;;;4.90;99.90;;;;;;10473499;28;20203;-77
2023/12/05 06:54:17;;;;;;;3.83;3.53;;;4.90;99.90;;;;;;10485392;28;20217;-77
2023/12/05 06:59:19;;;;;;;4.27;3.97;;;4.90;99.90;;;;;;10490825;28;20643;-75
2023/12/05 07:04:22;;;;;;;4.33;3.80;;;4.90;99.90;;;;;;10494702;28;20238;-77
2023/12/05 07:09:24;;;;;;;4.37;4.07;;;4.90;99.90;;;;;;10492011;28;20787;-79
2023/12/05 07:14:26;;;;;;;4.80;4.30;;;4.90;99.90;;;;;;10484460;28;20221;-77
2023/12/05 07:19:29;;;;;;;3.80;3.50;;;4.90;99.90;;;;;;10495195;28;20264;-80
2023/12/05 07:24:31;;;;;;;3.57;3.30;;;5.00;99.90;;;;;;10504685;28;20220;-79
2023/12/05 07:29:33;;;;;;;3.10;2.90;;;5.00;99.90;;;;;;10498031;28;20197;-77
2023/12/05 07:34:36;;;;;;;3.80;3.50;;;5.00;99.90;;;;;;10494300;28;20770;-77
2023/12/05 07:39:38;;;;;;;4.30;3.77;;;5.10;99.90;;;;;;10495684;28;20189;-77
2023/12/05 07:44:40;;;;;;;4.47;2.83;;;5.10;99.90;;;;;;10480605;28;20768;-76
2023/12/05 07:49:45;;;;;;;4.60;3.30;;;5.20;99.90;;;;;;10487197;28;20249;-77
2023/12/05 07:54:47;;;;;;;2.57;2.37;;;5.20;99.90;;;;;;10492682;28;20910;-78
2023/12/05 07:59:49;;;;;;;3.50;2.90;;;5.20;99.90;;;;;;10494505;28;20197;-77
2023/12/05 08:04:52;;;;;;;3.37;3.17;;;5.30;99.90;;;;;;10492977;28;20258;-77
2023/12/05 08:09:54;;;;;;;3.13;2.83;;;5.30;99.90;;;;;;10493933;28;20216;-77
2023/12/05 08:14:57;;;;;;;3.97;3.37;;;5.30;99.90;;;;;;10477670;28;20233;-78
2023/12/05 08:20:00;;;;;;;3.73;3.43;;;5.30;99.90;;;;;;10488338;28;20208;-77
2023/12/05 08:25:02;;;;;;;5.20;2.33;;;5.30;99.90;;;;;;10493455;28;20287;-78
2023/12/05 08:30:04;;;;;;;2.57;2.40;;;5.30;99.90;;;;;;10494293;28;20426;-78
2023/12/05 08:35:08;;;;;;;3.10;2.90;;;5.40;99.90;;;;;;10492156;28;20220;-77
2023/12/05 08:40:11;;;;;;;5.50;3.03;;;5.50;99.90;;;;;;10493989;28;20204;-77
2023/12/05 08:45:13;;;;;;;2.97;2.87;;;5.50;99.90;;;;;;10476951;28;20217;-78
2023/12/05 08:50:17;;;;;;;3.33;2.90;;;5.60;99.90;;;;;;10483237;28;20231;-77
2023/12/05 08:55:19;;;;;;;6.03;3.40;;;5.70;99.90;;;;;;10495352;28;20205;-77
2023/12/05 09:00:21;;;;;;;3.13;2.60;;;5.80;99.90;;;;;;10472410;28;20235;-78
2023/12/05 09:05:24;;;;;;;2.93;2.73;;;5.90;99.90;;;;;;10490334;28;20225;-78
2023/12/05 09:10:26;;;;;;;2.30;2.10;;;6.10;99.90;;;;;;10496464;28;20227;-78
2023/12/05 09:15:28;;;;;;;3.30;2.33;;;6.20;99.90;;;;;;10477153;28;20228;-78
2023/12/05 09:20:31;;;;;;;2.50;2.30;;;6.20;99.90;;;;;;10480916;28;20228;-78
2023/12/05 09:25:33;;;;;;;2.63;2.43;;;6.30;99.90;;;;;;10482769;28;20270;-78
2023/12/05 09:30:35;;;;;;;3.60;3.30;;;6.30;99.90;;;;;;10483396;28;20237;-78
2023/12/05 09:35:38;;;;;;;2.00;1.90;;;6.40;99.90;;;;;;10475493;28;20250;-78
2023/12/05 09:40:40;;;;;;;2.60;2.40;;;6.40;99.90;;;;;;10478179;28;20204;-78
2023/12/05 09:45:45;;;;;;;2.63;2.43;;;6.50;99.90;;;;;;10467845;28;20638;-77
2023/12/05 09:50:48;;;;;;;2.70;2.20;;;6.50;99.90;;;;;;10466076;28;20289;-78
2023/12/05 09:55:51;;;;;;;2.63;2.43;;;6.50;99.90;;;;;;10485645;28;20709;-78
2023/12/05 10:00:53;;;;;;;1.93;1.60;;;6.60;99.90;;;;;;10469658;28;20767;-76
2023/12/05 10:05:58;;;;;;;2.60;2.00;;;6.60;99.90;;;;;;10492450;28;20243;-77
2023/12/05 10:11:01;;;;;;;2.63;2.43;;;6.60;99.90;;;;;;10494172;28;20192;-78
2023/12/05 10:16:04;;;;;;;3.10;1.90;;;6.60;99.90;;;;;;10471895;28;20287;-77
2023/12/05 10:21:08;;;;;;;2.30;2.00;;;6.70;99.90;;;;;;10500428;28;20270;-77
2023/12/05 10:26:10;;;;;;;3.00;2.80;;;6.70;99.90;;;;;;10499842;28;20646;-78
2023/12/05 10:31:15;;;;;;;2.07;1.83;;;6.80;99.90;;;;;;10497279;28;20189;-77
2023/12/05 10:36:18;;;;;;;2.47;2.27;;;6.80;99.90;;;;;;10473890;28;20710;-78
2023/12/05 10:41:23;;;;;;;2.27;1.83;;;7.00;99.90;;;;;;10482966;28;20258;-76
2023/12/05 10:46:26;;;;;;;2.30;2.10;;;7.10;99.90;;;;;;10484410;28;20221;-78
2023/12/05 10:51:29;;;;;;;3.33;2.23;;;7.10;99.90;;;;;;10501608;28;20277;-77
2023/12/05 10:56:31;;;;;;;2.60;2.40;;;7.20;99.90;;;;;;10502072;28;20227;-78
2023/12/05 11:01:35;;;;;;;3.47;2.17;;;7.20;99.90;;;;;;10506562;28;20228;-78
2023/12/05 11:06:39;;;;;;;2.40;2.20;;;7.20;99.90;;;;;;10500902;28;20274;-79
2023/12/05 11:11:41;;;;;;;2.03;1.83;;;7.20;99.90;;;;;;10500776;28;20650;-78
2023/12/05 11:16:49;;;;;;;2.40;2.10;;;7.20;99.90;;;;;;10498911;28;20224;-79
2023/12/05 11:22:01;;;;;;;2.20;2.00;;;7.20;99.90;;;;;;10487321;28;20218;-79
2023/12/05 11:27:17;;;;;;;1.60;1.50;;;7.20;99.90;;;;;;10465886;28;20578;-79
2023/12/05 11:32:26;;;;;;;2.73;1.83;;;7.20;99.90;;;;;;10481006;28;20184;-79
2023/12/05 11:37:48;;;;;;;1.80;1.70;;;7.20;99.90;;;;;;10491120;28;20216;-79
2023/12/05 11:43:05;;;;;;;1.90;1.80;;;7.20;99.90;;;;;;10472338;28;20217;-79
2023/12/05 11:48:10;;;;;;;2.17;1.70;;;7.20;99.90;;;;;;10481811;28;20576;-79
2023/12/05 11:53:15;;;;;;;1.77;1.67;;;7.20;99.90;;;;;;10480710;28;20220;-79
2023/12/05 11:58:28;;;;;;;1.80;1.70;;;7.30;99.90;;;;;;10471618;28;20189;-78
2023/12/05 12:03:45;;;;;;;2.13;2.00;;;7.20;99.90;;;;;;10461415;28;20718;-79
2023/12/05 12:08:52;;;;;;;2.40;1.90;;;7.30;99.90;;;;;;10465943;28;20224;-79
2023/12/05 12:13:54;;;;;;;2.60;1.60;;;7.30;99.90;;;;;;10477890;28;20213;-76
2023/12/05 12:19:02;;;;;;;1.80;1.70;;;7.40;99.90;;;;;;10468040;28;20720;-79
2023/12/05 12:24:05;;;;;;;1.80;1.70;;;7.40;99.90;;;;;;10468469;28;20220;-79
2023/12/05 12:29:08;;;;;;;2.80;1.47;;;7.40;99.90;;;;;;10492202;28;20262;-80
2023/12/05 12:34:22;;;;;;;2.10;1.90;;;7.50;99.90;;;;;;10474358;28;20235;-79
2023/12/05 12:39:25;;;;;;;2.70;1.93;;;7.50;99.90;;;;;;10498937;28;20273;-81
2023/12/05 12:44:28;;;;;;;1.83;1.73;;;7.60;99.90;;;;;;10484745;28;20243;-80
2023/12/05 12:49:30;;;;;;;1.63;1.53;;;7.70;99.90;;;;;;10495590;28;20779;-81
2023/12/05 12:54:33;;;;;;;2.83;2.63;;;7.70;99.90;;;;;;10497131;28;20242;-80
2023/12/05 12:59:36;;;;;;;2.67;2.40;;;7.70;99.90;;;;;;10496152;28;20222;-81
2023/12/05 13:04:38;;;;;;;1.90;1.80;;;7.70;99.90;;;;;;10496718;28;20229;-81
2023/12/05 13:09:41;;;;;;;2.03;1.90;;;7.70;99.90;;;;;;10502982;28;20201;-79
2023/12/05 13:14:48;;;;;;;2.53;1.83;;;7.60;99.90;;;;;;10500464;28;20225;-81
2023/12/05 13:19:50;;;;;;;1.90;1.80;;;7.70;99.90;;;;;;10496320;28;20208;-80
2023/12/05 13:24:53;;;;;;;2.23;2.03;;;7.70;99.90;;;;;;10494353;28;20270;-80
2023/12/05 13:29:55;;;;;;;1.30;1.27;;;7.60;99.90;;;;;;10497571;28;20200;-80
2023/12/05 13:34:57;;;;;;;2.53;1.97;;;7.60;99.90;;;;;;10512025;28;20255;-81
2023/12/05 13:40:00;;;;;;;1.50;1.40;;;7.70;99.90;;;;;;10504149;28;20592;-80
2023/12/05 13:45:02;;;;;;;3.20;1.63;;;7.80;99.90;;;;;;10490200;28;20228;-80
2023/12/05 13:50:06;;;;;;;2.23;1.73;;;7.80;99.90;;;;;;10501993;28;20204;-80
2023/12/05 13:55:10;;;;;;;2.00;1.90;;;7.90;99.90;;;;;;10501579;28;20220;-79
2023/12/05 14:00:14;;;;;;;5.80;2.93;;;7.90;99.90;;;;;;10504015;28;20250;-80
2023/12/05 14:05:17;;;;;;;2.53;2.33;;;8.00;99.90;;;;;;10501620;28;20226;-80
2023/12/05 14:10:20;;;;;;;2.03;1.93;;;7.90;99.90;;;;;;10504681;28;20200;-80
2023/12/05 14:15:22;;;;;;;4.07;2.43;;;8.00;99.90;;;;;;10490921;28;20217;-81
2023/12/05 14:20:24;;;;;;;3.37;2.20;;;7.90;99.90;;;;;;10502592;28;20204;-80
2023/12/05 14:25:27;;;;;;;1.73;1.60;;;7.90;99.90;;;;;;10501546;28;20278;-79
2023/12/05 14:30:29;;;;;;;2.23;1.63;;;7.90;99.90;;;;;;10500390;28;20189;-79
2023/12/05 14:35:31;;;;;;;2.80;2.00;;;7.80;99.90;;;;;;10501223;28;20209;-80
2023/12/05 14:40:34;;;;;;;2.50;2.10;;;7.80;99.90;;;;;;10500392;28;20657;-80
2023/12/05 14:45:36;;;;;;;2.40;1.77;;;7.80;99.90;;;;;;10482099;28;20224;-76
2023/12/05 14:50:38;;;;;;;4.80;2.43;;;7.70;99.90;;;;;;10498706;28;20242;-78
2023/12/05 14:55:41;;;;;;;3.30;2.47;;;7.60;99.90;;;;;;10499266;28;20232;-80
2023/12/05 15:00:43;;;;;;;2.50;1.70;;;7.50;99.90;;;;;;10501251;28;20239;-80
2023/12/05 15:05:44;;;;;;;2.67;1.87;;;7.40;99.90;;;;;;10499993;28;20224;-80
2023/12/05 15:10:48;;;;;;;4.30;1.60;;;7.40;99.90;;;;;;10502155;28;20801;-79
2023/12/05 15:15:51;;;;;;;4.50;2.30;;;7.40;99.90;;;;;;10485447;28;20698;-80
2023/12/05 15:20:53;;;;;;;1.53;1.43;;;7.30;99.90;;;;;;10503438;28;20250;-80
2023/12/05 15:25:58;;;;;;;2.07;1.97;;;7.30;99.90;;;;;;10503522;28;20224;-80
2023/12/05 15:31:00;;;;;;;4.37;1.90;;;7.20;99.90;;;;;;10509044;28;20549;-79
2023/12/05 15:36:01;;;;;;;5.90;2.27;;;7.30;99.90;;;;;;10511742;28;20217;-80
2023/12/05 15:41:09;;;;;;;6.47;2.00;;;7.20;99.90;;;;;;10503345;28;20200;-80
2023/12/05 15:46:21;;;;;;;3.40;1.47;;;7.20;99.90;;;;;;10480086;28;20307;-80
2023/12/05 15:51:23;;;;;;;1.73;1.63;;;7.30;99.90;;;;;;10499032;28;20203;-79
2023/12/05 15:56:27;;;;;;;2.73;1.80;;;7.20;99.90;;;;;;10497580;28;20220;-80
2023/12/05 16:01:29;;;;;;;2.10;1.63;;;7.30;99.90;;;;;;10494774;28;20659;-80
2023/12/05 16:06:31;;;;;;;4.00;1.90;;;7.30;99.90;;;;;;10506080;28;20761;-80
2023/12/05 16:11:34;;;;;;;2.47;1.80;;;7.20;99.90;;;;;;10499838;28;20207;-79
2023/12/05 16:16:39;;;;;;;2.70;1.93;;;7.20;99.90;;;;;;10493060;28;20239;-77
2023/12/05 16:21:41;;;;;;;1.57;1.47;;;7.20;99.90;;;;;;10496565;28;20236;-80
2023/12/05 16:26:44;;;;;;;2.20;1.97;;;7.20;99.90;;;;;;10495818;28;20712;-79
2023/12/05 16:31:46;;;;;;;2.57;1.80;;;7.20;99.90;;;;;;10496756;28;20376;-80
2023/12/05 16:36:48;;;;;;;3.13;1.80;;;7.10;99.90;;;;;;10497103;28;20358;-79
2023/12/05 16:41:52;;;;;;;2.17;2.00;;;7.10;99.90;;;;;;10496352;28;20196;-80
2023/12/05 16:46:54;;;;;;;2.30;2.10;;;7.00;99.90;;;;;;10486927;28;20220;-80
2023/12/05 16:51:55;;;;;;;1.70;1.60;;;7.00;99.90;;;;;;10495942;28;21154;-80
2023/12/05 16:56:59;;;;;;;2.27;2.07;;;7.00;99.90;;;;;;10495340;28;20607;-78
2023/12/05 17:02:00;;;;;;;3.43;2.30;;;7.00;99.90;;;;;;10495148;28;20204;-79
2023/12/05 17:07:02;;;;;;;2.50;2.20;;;7.00;99.90;;;;;;10495730;28;20676;-80
2023/12/05 17:12:06;;;;;;;5.90;3.47;;;7.00;99.90;;;;;;10495840;28;20193;-80
2023/12/05 17:17:10;;;;;;;5.10;3.23;;;7.00;99.90;;;;;;10485706;28;20722;-79
2023/12/05 17:22:13;;;;;;;2.70;2.50;;;7.00;99.90;;;;;;10496065;28;20232;-79
2023/12/05 17:27:17;;;;;;;4.67;2.10;;;6.90;99.90;;;;;;10463402;22;20237;-77
2023/12/05 17:32:25;;;;;;;2.27;2.17;;;6.90;99.90;;;;;;10385212;28;20186;-77
2023/12/05 17:37:30;;;;;;;3.73;2.50;;;6.90;99.90;;;;;;10384021;28;20241;-77
2023/12/05 17:42:34;;;;;;;2.90;1.93;;;6.90;99.90;;;;;;10382333;28;20230;-77
2023/12/05 17:47:36;;;;;;;2.20;1.93;;;6.90;99.90;;;;;;10397827;28;20470;-77
2023/12/05 17:52:38;;;;;;;2.33;2.00;;;6.80;99.90;;;;;;10383213;28;20264;-77
2023/12/05 17:57:41;;;;;;;2.70;2.47;;;6.80;99.90;;;;;;10381366;28;20225;-77
2023/12/05 18:02:43;;;;;;;3.47;2.87;;;6.60;99.90;;;;;;10380422;28;20210;-77
2023/12/05 18:07:45;;;;;;;3.03;2.87;;;6.40;99.90;;;;;;10379668;28;20313;-77
2023/12/05 18:12:49;;;;;;;2.37;2.27;;;6.30;99.90;;;;;;10376984;28;20220;-76
2023/12/05 18:17:51;;;;;;;3.23;2.53;;;6.30;99.90;;;;;;10388655;28;20221;-77
2023/12/05 18:22:53;;;;;;;4.37;4.07;;;6.20;99.90;;;;;;10409877;28;20402;-77
2023/12/05 18:27:56;;;;;;;3.20;3.00;;;6.20;99.90;;;;;;10386864;28;20238;-78
2023/12/05 18:32:58;;;;;;;2.70;2.50;;;6.10;99.90;;;;;;10417582;28;20478;-77
2023/12/05 18:37:59;;;;;;;3.23;3.03;;;6.10;99.90;;;;;;10402808;28;20683;-77
2023/12/05 18:43:03;;;;;;;3.33;3.10;;;6.00;99.90;;;;;;10389364;28;20592;-76
2023/12/05 18:48:05;;;;;;;3.60;3.30;;;6.00;99.90;;;;;;10390027;28;20233;-77
2023/12/05 18:53:07;;;;;;;3.77;3.57;;;5.90;99.90;;;;;;10397084;28;20194;-77
2023/12/05 18:58:10;;;;;;;3.67;3.40;;;5.90;99.90;;;;;;10394878;28;20218;-77
2023/12/05 19:03:13;;;;;;;2.60;2.50;;;5.90;99.90;;;;;;10404174;28;20340;-76
2023/12/05 19:08:15;;;;;;;2.63;2.53;;;5.90;99.90;;;;;;10386507;28;20417;-77
2023/12/05 19:13:18;;;;;;;4.30;4.00;;;5.90;99.90;;;;;;10394296;28;20213;-76
2023/12/05 19:18:20;;;;;;;3.57;3.37;;;5.80;99.90;;;;;;10400280;28;20291;-77
2023/12/05 19:23:24;;;;;;;3.90;3.70;;;5.90;99.90;;;;;;10395763;28;20275;-77
2023/12/05 19:28:27;;;;;;;4.17;3.97;;;5.80;99.90;;;;;;10400118;28;20255;-77
2023/12/05 19:33:29;;;;;;;4.20;4.00;;;5.80;99.90;;;;;;10398092;28;20210;-77
2023/12/05 19:38:31;;;;;;;4.40;4.07;;;5.70;99.90;;;;;;10398627;28;20698;-77
2023/12/05 19:43:34;;;;;;;3.97;3.77;;;5.80;99.90;;;;;;10389805;28;20222;-77
2023/12/05 19:48:37;;;;;;;3.27;3.00;;;5.80;99.90;;;;;;10411091;28;20210;-76
2023/12/05 19:53:39;;;;;;;3.10;2.90;;;5.80;99.90;;;;;;10385952;28;20209;-77
2023/12/05 19:58:42;;;;;;;2.47;2.37;;;5.80;99.90;;;;;;10378610;28;20229;-77
2023/12/05 20:03:44;;;;;;;2.23;2.13;;;5.80;99.90;;;;;;10376656;28;20221;-77
2023/12/05 20:08:46;;;;;;;1.93;1.83;;;5.80;99.90;;;;;;10374472;28;20225;-77
2023/12/05 20:13:50;;;;;;;2.60;2.47;;;5.80;99.90;;;;;;10388970;28;20202;-76
2023/12/05 20:18:52;;;;;;;2.50;2.10;;;5.90;99.90;;;;;;10391799;28;20292;-77
2023/12/05 20:23:54;;;;;;;2.50;2.30;;;5.90;99.90;;;;;;10382222;28;20222;-76
2023/12/05 20:28:57;;;;;;;2.30;2.20;;;6.00;99.90;;;;;;10383654;28;20237;-77
2023/12/05 20:33:59;;;;;;;2.47;2.37;;;6.00;99.90;;;;;;10387167;28;20252;-77
2023/12/05 20:39:04;;;;;;;1.87;1.77;;;6.00;99.90;;;;;;10388341;28;20352;-77
2023/12/05 20:44:08;;;;;;;2.27;2.07;;;6.00;99.90;;;;;;10379221;28;20221;-77
2023/12/05 20:49:10;;;;;;;2.57;2.20;;;6.00;99.90;;;;;;10378827;28;20276;-77
2023/12/05 20:54:12;;;;;;;5.00;2.30;;;6.00;99.90;;;;;;10391271;28;20202;-77
2023/12/05 20:59:15;;;;;;;2.30;2.10;;;6.00;99.90;;;;;;10387756;28;20206;-77
2023/12/05 21:04:17;;;;;;;2.13;2.03;;;6.00;99.90;;;;;;10389923;28;20236;-77
2023/12/05 21:09:19;;;;;;;2.37;2.20;;;5.90;99.90;;;;;;10387286;28;20301;-77
2023/12/05 21:14:22;;;;;;;1.83;1.83;;;5.90;99.90;;;;;;10386772;28;20201;-77
2023/12/05 21:19:24;;;;;;;2.10;2.00;;;5.80;99.90;;;;;;10397366;28;20205;-77
2023/12/05 21:24:26;;;;;;;2.47;2.33;;;5.80;99.90;;;;;;10385440;28;20226;-77
2023/12/05 21:29:29;;;;;;;2.60;2.50;;;5.70;99.90;;;;;;10397637;28;20205;-77
2023/12/05 21:34:31;;;;;;;2.20;2.10;;;5.70;99.90;;;;;;10374538;28;20271;-77
2023/12/05 21:39:33;;;;;;;2.30;2.20;;;5.80;99.90;;;;;;10386971;28;20207;-76
2023/12/05 21:44:40;;;;;;;1.90;1.80;;;5.80;99.90;;;;;;10387325;28;20313;-76
2023/12/05 21:49:42;;;;;;;4.30;2.23;;;5.70;99.90;;;;;;10379900;28;20212;-77
2023/12/05 21:54:44;;;;;;;1.93;1.83;;;5.80;99.90;;;;;;10392860;28;20213;-75
2023/12/05 21:59:47;;;;;;;2.13;2.03;;;5.90;99.90;;;;;;10401321;28;20570;-77
2023/12/05 22:04:49;;;;;;;3.60;1.80;;;5.90;99.90;;;;;;10399706;28;20249;-77
2023/12/05 22:09:51;;;;;;;2.30;2.20;;;5.90;99.90;;;;;;10402466;28;20197;-77
2023/12/05 22:14:54;;;;;;;2.60;2.50;;;5.80;99.90;;;;;;10392756;28;20216;-77
2023/12/05 22:19:56;;;;;;;2.50;2.40;;;5.70;99.90;;;;;;10400991;28;20228;-76
2023/12/05 22:24:58;;;;;;;2.43;2.30;;;5.70;99.90;;;;;;10386274;28;20284;-76
2023/12/05 22:30:02;;;;;;;2.53;2.43;;;5.70;99.90;;;;;;10399151;28;20292;-76
2023/12/05 22:35:05;;;;;;;2.70;2.60;;;5.70;99.90;;;;;;10401566;28;20660;-77
2023/12/05 22:40:08;;;;;;;2.77;2.57;;;5.70;99.90;;;;;;10402435;28;20201;-76
2023/12/05 22:45:11;;;;;;;2.40;2.30;;;5.70;99.90;;;;;;10393686;28;20232;-77
2023/12/05 22:50:13;;;;;;;2.40;2.23;;;5.70;99.90;;;;;;10401342;28;20709;-76
2023/12/05 22:55:15;;;;;;;3.57;2.47;;;5.70;99.90;;;;;;10389581;28;20715;-76
2023/12/05 23:00:23;;;;;;;2.70;2.60;;;5.70;99.90;;;;;;10402030;28;20621;-76
2023/12/05 23:05:28;;;;;;;2.77;2.47;;;5.60;99.90;;;;;;10389124;28;20283;-77
2023/12/05 23:10:30;;;;;;;2.90;2.80;;;5.60;99.90;;;;;;10400659;28;20280;-77
2023/12/05 23:15:33;;;;;;;2.70;2.60;;;5.70;99.90;;;;;;10393672;28;20221;-76
2023/12/05 23:20:35;;;;;;;2.60;2.50;;;5.60;99.90;;;;;;10402278;28;20675;-77
2023/12/05 23:25:37;;;;;;;2.50;2.40;;;5.60;99.90;;;;;;10388370;28;20230;-77
2023/12/05 23:30:40;;;;;;;2.43;2.33;;;5.60;99.90;;;;;;10394395;28;20557;-77
2023/12/05 23:35:42;;;;;;;2.67;2.57;;;5.70;99.90;;;;;;10400786;28;20229;-77
2023/12/05 23:40:44;;;;;;;2.70;2.60;;;5.70;99.90;;;;;;10403204;28;20256;-77
2023/12/05 23:45:47;;;;;;;2.70;2.60;;;5.70;99.90;;;;;;10403631;28;20283;-76
2023/12/05 23:50:49;;;;;;;2.60;2.50;;;5.70;99.90;;;;;;10408199;28;20198;-76
2023/12/05 23:55:52;;;;;;;2.60;2.50;;;5.70;99.90;;;;;;10397779;28;20773;-77
